Time;durP1;ratioP1;P1;durP2;ratioP2;P2;SDS_P1;SDS_P2;PMS_P1;PMS_P2;Temp;Humidity;BMP_temperature;BMP_pressure;BME280_temperature;BME280_humidity;BME280_pressure;Samples;Min_cycle;Max_cycle;Signal;HPM_P1;HPM_P2
2023/04/06 00:01:17;;;;;;;7.50;4.43;;;3.70;92.00;;;;;;10425695;28;20302;-70
2023/04/06 00:06:17;;;;;;;6.23;4.17;;;3.50;92.90;;;;;;10426810;28;20692;-71
2023/04/06 00:11:18;;;;;;;7.33;4.23;;;3.50;93.40;;;;;;10422222;28;20318;-70
2023/04/06 00:16:20;;;;;;;7.83;4.40;;;3.50;94.20;;;;;;10426422;28;20220;-71
2023/04/06 00:21:21;;;;;;;5.23;3.93;;;3.60;94.70;;;;;;10415508;28;20229;-70
2023/04/06 00:26:21;;;;;;;10.13;5.30;;;3.70;94.90;;;;;;10423227;28;20244;-71
2023/04/06 00:31:22;;;;;;;8.00;4.80;;;3.80;94.70;;;;;;10423758;28;20230;-70
2023/04/06 00:36:23;;;;;;;7.07;4.53;;;3.80;94.90;;;;;;10425598;28;20253;-70
2023/04/06 00:41:25;;;;;;;7.37;4.37;;;3.80;95.00;;;;;;10420326;28;20219;-71
2023/04/06 00:46:25;;;;;;;6.00;4.20;;;3.80;94.20;;;;;;10417470;28;20220;-69
2023/04/06 00:51:27;;;;;;;6.60;4.00;;;3.80;94.30;;;;;;10419641;28;20302;-70
2023/04/06 00:56:27;;;;;;;7.53;4.43;;;3.90;93.90;;;;;;10425229;28;20252;-69
2023/04/06 01:01:28;;;;;;;7.73;4.93;;;3.80;94.40;;;;;;10425496;28;20254;-70
2023/04/06 01:06:29;;;;;;;7.27;4.90;;;3.80;94.90;;;;;;10424584;28;20650;-70
2023/04/06 01:11:31;;;;;;;6.40;4.63;;;3.70;94.80;;;;;;10429381;28;20265;-70
2023/04/06 01:16:32;;;;;;;6.40;4.67;;;3.70;95.80;;;;;;10424066;28;20252;-70
2023/04/06 01:21:32;;;;;;;7.27;5.50;;;3.50;96.50;;;;;;10429179;28;20247;-70
2023/04/06 01:26:34;;;;;;;6.63;4.87;;;3.40;97.40;;;;;;10422275;28;20792;-70
2023/04/06 01:31:35;;;;;;;7.67;5.17;;;3.40;98.50;;;;;;10429700;28;20224;-71
2023/04/06 01:36:36;;;;;;;5.53;4.43;;;3.20;99.40;;;;;;10436585;28;20725;-69
2023/04/06 01:41:37;;;;;;;8.17;4.93;;;3.20;99.90;;;;;;10430217;28;20224;-70
2023/04/06 01:46:37;;;;;;;6.13;5.03;;;3.10;99.90;;;;;;10436018;28;20235;-70
2023/04/06 01:51:38;;;;;;;6.37;4.90;;;3.00;99.90;;;;;;10426905;28;20223;-70
2023/04/06 01:56:38;;;;;;;6.77;4.57;;;2.90;99.90;;;;;;10436766;28;20228;-70
2023/04/06 02:01:39;;;;;;;5.93;4.50;;;2.80;99.90;;;;;;10427801;28;20216;-69
2023/04/06 02:06:40;;;;;;;5.97;4.70;;;2.70;99.90;;;;;;10435544;28;20452;-70
2023/04/06 02:11:40;;;;;;;7.40;4.83;;;2.60;99.90;;;;;;10427591;28;20227;-69
2023/04/06 02:16:41;;;;;;;8.00;5.17;;;2.60;99.90;;;;;;10427099;28;20216;-71
2023/04/06 02:21:42;;;;;;;4.90;4.40;;;2.70;99.90;;;;;;10427666;28;20220;-71
2023/04/06 02:26:42;;;;;;;5.87;4.50;;;2.70;99.90;;;;;;10435487;28;20315;-70
2023/04/06 02:31:43;;;;;;;5.10;4.03;;;2.80;99.90;;;;;;10426190;28;20236;-71
2023/04/06 02:36:45;;;;;;;6.83;4.70;;;2.70;99.90;;;;;;10417051;28;20221;-70
2023/04/06 02:41:45;;;;;;;6.20;5.13;;;2.70;99.90;;;;;;10419305;28;20230;-70
2023/04/06 02:46:47;;;;;;;7.60;4.80;;;2.70;99.90;;;;;;10434153;28;20766;-71
2023/04/06 02:51:48;;;;;;;7.23;5.90;;;2.60;99.90;;;;;;10422641;28;20225;-70
2023/04/06 02:56:49;;;;;;;6.67;4.87;;;2.50;99.90;;;;;;10416129;28;20636;-70
2023/04/06 03:01:50;;;;;;;7.70;5.57;;;2.50;99.90;;;;;;10432446;28;20593;-70
2023/04/06 03:06:50;;;;;;;7.07;5.43;;;2.40;99.90;;;;;;10426553;28;20264;-72
2023/04/06 03:11:51;;;;;;;6.30;5.37;;;2.30;99.90;;;;;;10431540;28;20235;-70
2023/04/06 03:16:52;;;;;;;8.47;5.50;;;2.30;99.90;;;;;;10432506;28;20216;-69
2023/04/06 03:21:52;;;;;;;7.03;5.73;;;2.30;99.90;;;;;;10419263;28;20245;-70
2023/04/06 03:26:53;;;;;;;7.83;6.00;;;2.30;99.90;;;;;;10426196;28;20228;-69
2023/04/06 03:31:53;;;;;;;7.43;5.83;;;2.20;99.90;;;;;;10431973;28;20228;-70
2023/04/06 03:36:54;;;;;;;10.83;6.80;;;2.20;99.90;;;;;;10425997;28;20773;-71
2023/04/06 03:41:54;;;;;;;8.97;6.70;;;2.10;99.90;;;;;;10431528;28;20695;-71
2023/04/06 03:46:55;;;;;;;7.70;6.17;;;2.10;99.90;;;;;;10430926;28;20227;-70
2023/04/06 03:51:56;;;;;;;8.93;6.60;;;2.10;99.90;;;;;;10433209;28;20224;-70
2023/04/06 03:56:57;;;;;;;7.57;5.90;;;2.10;99.90;;;;;;10429446;28;20262;-71
2023/04/06 04:01:57;;;;;;;8.97;6.10;;;2.10;99.90;;;;;;10429249;28;20231;-70
2023/04/06 04:06:58;;;;;;;13.43;6.00;;;2.10;99.90;;;;;;10432120;28;20248;-70
2023/04/06 04:11:59;;;;;;;9.70;6.57;;;2.10;99.90;;;;;;10419553;28;20289;-70
2023/04/06 04:17:00;;;;;;;8.73;5.97;;;2.10;99.90;;;;;;10422474;28;20214;-71
2023/04/06 04:22:04;;;;;;;8.47;5.90;;;2.00;99.90;;;;;;10432301;28;20227;-70
2023/04/06 04:27:05;;;;;;;6.60;5.77;;;2.00;99.90;;;;;;10426533;28;20216;-71
2023/04/06 04:32:05;;;;;;;8.97;6.70;;;2.00;99.90;;;;;;10431830;28;20694;-71
2023/04/06 04:37:06;;;;;;;8.83;5.90;;;1.90;99.90;;;;;;10414316;28;20306;-69
2023/04/06 04:42:07;;;;;;;9.70;6.73;;;1.90;99.90;;;;;;10428854;28;20229;-71
2023/04/06 04:47:08;;;;;;;8.20;6.67;;;1.80;99.90;;;;;;10418977;28;20242;-70
2023/04/06 04:52:08;;;;;;;9.17;7.00;;;1.80;99.90;;;;;;10427256;28;20230;-69
2023/04/06 04:57:09;;;;;;;8.57;6.63;;;1.90;99.90;;;;;;10426431;28;20855;-71
2023/04/06 05:02:10;;;;;;;10.73;6.27;;;1.90;99.90;;;;;;10406940;28;20699;-70
2023/04/06 05:07:10;;;;;;;11.50;7.30;;;2.00;99.90;;;;;;10415453;28;20292;-70
2023/04/06 05:12:11;;;;;;;9.77;7.07;;;2.10;99.90;;;;;;10435562;28;20235;-70
2023/04/06 05:17:12;;;;;;;10.00;6.67;;;2.20;99.90;;;;;;10428063;28;20231;-71
2023/04/06 05:22:15;;;;;;;8.53;6.67;;;2.40;99.90;;;;;;10432820;28;20247;-70
2023/04/06 05:27:16;;;;;;;27.67;14.47;;;2.60;99.90;;;;;;10430536;28;20239;-69
2023/04/06 05:32:21;;;;;;;34.17;17.60;;;2.80;99.90;;;;;;10434126;28;20271;-70
2023/04/06 05:37:22;;;;;;;22.57;11.67;;;3.00;99.90;;;;;;10433745;28;20278;-72
2023/04/06 05:42:22;;;;;;;16.87;10.00;;;3.20;99.90;;;;;;10431716;28;20303;-71
2023/04/06 05:47:23;;;;;;;12.03;7.33;;;3.50;99.90;;;;;;10433522;28;20612;-71
2023/04/06 05:52:24;;;;;;;11.10;6.90;;;3.70;99.90;;;;;;10431035;28;20256;-69
2023/04/06 05:57:24;;;;;;;11.50;7.67;;;3.90;99.90;;;;;;10421477;28;20612;-71
2023/04/06 06:02:25;;;;;;;11.73;8.30;;;4.10;99.90;;;;;;10429818;28;20216;-70
2023/04/06 06:07:26;;;;;;;12.57;7.20;;;4.60;99.90;;;;;;10426674;28;20307;-71
2023/04/06 06:12:27;;;;;;;10.40;6.50;;;7.50;99.90;;;;;;10429968;28;20232;-71
2023/04/06 06:17:27;;;;;;;7.17;6.30;;;10.70;94.40;;;;;;10430690;28;20349;-70
2023/04/06 06:22:28;;;;;;;11.43;6.50;;;12.90;77.40;;;;;;10429335;28;20217;-71
2023/04/06 06:27:29;;;;;;;9.50;6.60;;;13.90;66.50;;;;;;10431536;28;20215;-71
2023/04/06 06:32:29;;;;;;;10.20;6.40;;;12.30;67.80;;;;;;10425322;28;20234;-70
2023/04/06 06:37:31;;;;;;;7.47;6.23;;;10.70;71.90;;;;;;10417174;28;20667;-71
2023/04/06 06:42:32;;;;;;;8.83;6.70;;;9.60;76.00;;;;;;10422436;28;20278;-69
2023/04/06 06:47:32;;;;;;;7.33;6.43;;;9.10;78.60;;;;;;10430728;28;20234;-70
2023/04/06 06:52:33;;;;;;;9.13;6.43;;;9.00;79.20;;;;;;10426844;28;20249;-71
2023/04/06 06:57:33;;;;;;;9.40;6.00;;;9.10;79.20;;;;;;10431349;28;20212;-71
2023/04/06 07:02:38;;;;;;;11.93;7.90;;;9.50;79.20;;;;;;10412907;28;20216;-71
2023/04/06 07:07:39;;;;;;;12.63;7.80;;;9.50;78.10;;;;;;10425074;28;20765;-70
2023/04/06 07:12:39;;;;;;;10.27;6.90;;;9.50;78.80;;;;;;10418820;28;20233;-70
2023/04/06 07:17:41;;;;;;;12.07;6.97;;;10.00;78.40;;;;;;10432817;28;20220;-72
2023/04/06 07:22:44;;;;;;;8.37;6.57;;;9.60;78.50;;;;;;10424495;28;20247;-71
2023/04/06 07:27:45;;;;;;;11.57;7.93;;;9.40;79.90;;;;;;10423911;28;20231;-71
2023/04/06 07:32:45;;;;;;;10.43;6.80;;;9.30;80.60;;;;;;10416130;28;20599;-73
2023/04/06 07:37:46;;;;;;;10.50;6.97;;;9.40;79.30;;;;;;10432545;28;20216;-71
2023/04/06 07:42:48;;;;;;;11.50;7.03;;;9.50;79.40;;;;;;10423554;28;20740;-71
2023/04/06 07:47:49;;;;;;;9.50;6.47;;;10.10;77.60;;;;;;10431558;28;20227;-71
2023/04/06 07:52:50;;;;;;;9.63;6.37;;;11.10;75.50;;;;;;10424333;28;20224;-70
2023/04/06 07:57:51;;;;;;;9.33;6.57;;;14.20;67.70;;;;;;10429755;28;20226;-71
2023/04/06 08:02:51;;;;;;;8.23;6.93;;;18.70;54.30;;;;;;10420746;28;20223;-71
2023/04/06 08:07:52;;;;;;;7.57;6.77;;;21.50;44.40;;;;;;10430632;28;20580;-71
2023/04/06 08:12:52;;;;;;;11.27;7.63;;;23.10;39.90;;;;;;10418315;28;20225;-70
2023/04/06 08:17:56;;;;;;;11.10;6.90;;;24.40;37.20;;;;;;10412274;28;20718;-71
2023/04/06 08:22:57;;;;;;;8.27;6.87;;;25.40;34.00;;;;;;10421695;28;20232;-71
2023/04/06 08:27:58;;;;;;;7.50;6.70;;;26.00;32.30;;;;;;10427699;28;20766;-72
2023/04/06 08:32:58;;;;;;;9.73;6.80;;;26.00;31.40;;;;;;10424475;28;20592;-71
2023/04/06 08:37:59;;;;;;;9.37;6.90;;;26.00;30.50;;;;;;10419445;28;20308;-72
2023/04/06 08:43:03;;;;;;;8.47;7.63;;;26.60;30.60;;;;;;10431858;28;20250;-71
2023/04/06 08:48:06;;;;;;;10.30;7.47;;;26.80;29.10;;;;;;10433657;28;20228;-70
2023/04/06 08:53:08;;;;;;;7.30;6.60;;;27.40;28.60;;;;;;10430937;28;20737;-71
2023/04/06 08:58:08;;;;;;;7.50;6.70;;;27.70;28.00;;;;;;10428869;28;20605;-71
2023/04/06 09:03:12;;;;;;;11.33;7.57;;;27.90;28.40;;;;;;10436119;28;20227;-72
2023/04/06 09:08:13;;;;;;;7.40;6.47;;;29.00;26.80;;;;;;10431763;28;20284;-71
2023/04/06 09:13:14;;;;;;;8.47;6.57;;;29.50;26.80;;;;;;10431667;28;20939;-70
2023/04/06 09:18:28;;;;;;;7.50;6.70;;;29.60;27.10;;;;;;10435080;28;20223;-72
2023/04/06 09:23:29;;;;;;;8.90;6.93;;;29.90;26.70;;;;;;10430702;28;20225;-71
2023/04/06 09:28:51;;;;;;;8.63;6.90;;;30.30;26.40;;;;;;10435142;28;20208;-72
2023/04/06 09:33:53;;;;;;;7.80;6.57;;;30.10;26.30;;;;;;10421573;28;20331;-72
2023/04/06 09:39:01;;;;;;;8.20;7.17;;;30.30;25.90;;;;;;10436936;28;20220;-73
2023/04/06 09:44:06;;;;;;;7.83;7.00;;;30.50;26.20;;;;;;10433436;28;20224;-72
2023/04/06 09:49:08;;;;;;;9.77;7.33;;;31.20;25.70;;;;;;10430638;28;20228;-72
2023/04/06 09:54:11;;;;;;;12.90;7.27;;;31.40;24.80;;;;;;10432518;28;20228;-72
2023/04/06 09:59:20;;;;;;;11.67;7.67;;;31.70;25.40;;;;;;10431493;28;20211;-71
2023/04/06 10:04:43;;;;;;;9.77;7.97;;;31.90;24.80;;;;;;10428142;28;20220;-71
2023/04/06 10:09:46;;;;;;;10.10;7.73;;;32.20;24.60;;;;;;10424818;28;20211;-71
2023/04/06 10:14:49;;;;;;;12.03;8.30;;;31.90;24.30;;;;;;10418114;28;20266;-71
2023/04/06 10:20:14;;;;;;;9.03;8.23;;;32.30;24.30;;;;;;10432057;28;20216;-72
2023/04/06 10:25:15;;;;;;;8.63;7.73;;;32.70;24.10;;;;;;10437839;28;20821;-72
2023/04/06 10:30:17;;;;;;;9.73;7.67;;;32.50;23.90;;;;;;10430017;28;20177;-71
2023/04/06 10:35:20;;;;;;;11.73;8.67;;;32.10;23.60;;;;;;10425666;28;20188;-71
2023/04/06 10:40:25;;;;;;;12.07;8.20;;;31.50;25.30;;;;;;10424813;28;20271;-70
2023/04/06 10:45:30;;;;;;;18.77;9.03;;;32.00;24.40;;;;;;10429014;28;20232;-72
2023/04/06 10:50:33;;;;;;;9.93;8.87;;;32.30;24.40;;;;;;10435511;28;20240;-71
2023/04/06 10:55:34;;;;;;;9.17;8.27;;;32.70;24.00;;;;;;10418542;28;20283;-71
2023/04/06 11:00:43;;;;;;;10.47;8.93;;;32.10;24.90;;;;;;10423845;28;20224;-71
2023/04/06 11:05:47;;;;;;;10.47;9.37;;;31.90;24.50;;;;;;10424092;28;20220;-71
2023/04/06 11:10:49;;;;;;;12.73;9.33;;;30.10;25.30;;;;;;10411578;28;20211;-71
2023/04/06 11:15:49;;;;;;;11.13;9.27;;;30.10;24.60;;;;;;10424222;28;20212;-71
2023/04/06 11:20:53;;;;;;;9.33;8.43;;;28.00;26.90;;;;;;10432743;28;20216;-70
2023/04/06 11:25:54;;;;;;;10.77;9.67;;;24.70;29.00;;;;;;10425358;28;20228;-72
2023/04/06 11:30:55;;;;;;;10.20;9.13;;;22.80;31.70;;;;;;10425991;28;20274;-71
2023/04/06 11:35:59;;;;;;;12.10;8.03;;;21.70;33.60;;;;;;10431281;28;20302;-72
2023/04/06 11:41:01;;;;;;;10.37;9.23;;;21.20;34.40;;;;;;10424866;28;20756;-70
2023/04/06 11:46:03;;;;;;;10.80;8.30;;;20.60;34.40;;;;;;10429846;28;20231;-72
2023/04/06 11:51:04;;;;;;;9.83;8.47;;;20.40;35.60;;;;;;10426456;28;20216;-70
2023/04/06 11:56:05;;;;;;;10.70;7.80;;;20.00;34.90;;;;;;10428309;28;20219;-71
2023/04/06 12:01:06;;;;;;;20.47;8.57;;;20.20;35.30;;;;;;10426507;28;20211;-72
2023/04/06 12:06:07;;;;;;;11.40;7.93;;;20.10;35.90;;;;;;10421854;28;20592;-72
2023/04/06 12:11:07;;;;;;;10.87;7.13;;;20.10;36.10;;;;;;10426512;28;20330;-72
2023/04/06 12:16:08;;;;;;;8.10;6.70;;;20.20;35.00;;;;;;10419098;28;20849;-71
2023/04/06 12:21:09;;;;;;;8.93;7.47;;;20.30;34.30;;;;;;10423428;28;20677;-71
2023/04/06 12:26:10;;;;;;;9.87;8.27;;;19.90;34.50;;;;;;10426497;28;20302;-70
2023/04/06 12:31:18;;;;;;;10.03;7.60;;;19.50;35.10;;;;;;10423052;28;20299;-71
2023/04/06 12:36:20;;;;;;;13.20;7.97;;;19.20;35.30;;;;;;10423430;28;20225;-71
2023/04/06 12:41:21;;;;;;;13.60;7.90;;;18.80;36.00;;;;;;10422731;28;20232;-70
2023/04/06 12:46:25;;;;;;;8.80;7.53;;;18.50;37.70;;;;;;10427188;28;20231;-71
2023/04/06 12:51:28;;;;;;;9.63;7.10;;;18.50;37.10;;;;;;10421407;28;20246;-72
2023/04/06 12:56:28;;;;;;;9.97;6.70;;;18.50;37.70;;;;;;10416027;28;20255;-71
2023/04/06 13:01:29;;;;;;;8.57;6.63;;;18.70;36.80;;;;;;10428180;28;20243;-71
2023/04/06 13:06:33;;;;;;;11.40;7.20;;;18.90;35.30;;;;;;10421666;28;20233;-71
2023/04/06 13:11:33;;;;;;;14.80;7.40;;;19.20;35.40;;;;;;10422355;28;20279;-71
2023/04/06 13:16:34;;;;;;;7.47;6.00;;;19.10;36.40;;;;;;10423866;28;20686;-71
2023/04/06 13:21:35;;;;;;;6.73;6.00;;;18.90;36.90;;;;;;10428569;28;20224;-71
2023/04/06 13:26:36;;;;;;;7.23;6.20;;;19.10;36.00;;;;;;10423235;28;20239;-71
2023/04/06 13:31:36;;;;;;;8.87;6.30;;;19.00;35.80;;;;;;10434900;28;20308;-71
2023/04/06 13:36:38;;;;;;;9.37;6.30;;;19.10;36.10;;;;;;10430354;28;20224;-72
2023/04/06 13:41:40;;;;;;;8.43;6.23;;;18.60;36.70;;;;;;10436626;28;20307;-72
2023/04/06 13:46:40;;;;;;;9.60;6.70;;;18.30;36.60;;;;;;10429821;28;20321;-71
2023/04/06 13:51:41;;;;;;;8.90;6.73;;;18.20;36.90;;;;;;10436562;28;20790;-72
2023/04/06 13:56:42;;;;;;;8.03;6.23;;;18.00;37.40;;;;;;10427670;28;20230;-72
2023/04/06 14:01:43;;;;;;;9.10;6.90;;;18.10;37.70;;;;;;10435081;28;20218;-71
2023/04/06 14:06:45;;;;;;;7.70;6.23;;;18.00;38.00;;;;;;10435843;28;20235;-72
2023/04/06 14:11:45;;;;;;;10.83;6.30;;;17.80;38.30;;;;;;10426314;28;20222;-72
2023/04/06 14:16:47;;;;;;;8.23;5.13;;;17.60;37.90;;;;;;10426162;28;20234;-71
2023/04/06 14:21:48;;;;;;;7.17;5.70;;;17.40;38.30;;;;;;10419499;28;20278;-71
2023/04/06 14:26:49;;;;;;;11.77;6.70;;;17.40;38.80;;;;;;10421575;28;20741;-71
2023/04/06 14:31:49;;;;;;;11.67;6.93;;;17.20;38.80;;;;;;10434514;28;20229;-71
2023/04/06 14:36:50;;;;;;;10.13;6.80;;;17.20;39.60;;;;;;10422607;28;20223;-71
2023/04/06 14:41:51;;;;;;;10.27;7.20;;;17.00;39.60;;;;;;10432350;28;20301;-71
2023/04/06 14:46:51;;;;;;;9.07;6.97;;;17.20;39.60;;;;;;10426053;28;20653;-71
2023/04/06 14:51:52;;;;;;;8.20;7.23;;;17.10;38.60;;;;;;10433621;28;20219;-70
2023/04/06 14:56:53;;;;;;;10.43;7.03;;;17.10;39.20;;;;;;10422714;28;20917;-71
2023/04/06 15:01:54;;;;;;;11.17;7.13;;;17.10;39.00;;;;;;10419342;28;20293;-71
2023/04/06 15:06:54;;;;;;;10.10;6.63;;;16.90;38.80;;;;;;10429567;28;20215;-72
2023/04/06 15:11:55;;;;;;;10.00;6.37;;;16.60;39.30;;;;;;10417766;28;20271;-72
2023/04/06 15:16:56;;;;;;;7.93;5.20;;;16.40;39.90;;;;;;10431487;28;20215;-70
2023/04/06 15:21:56;;;;;;;7.57;5.00;;;16.20;40.40;;;;;;10426713;28;20209;-71
2023/04/06 15:26:57;;;;;;;7.77;4.77;;;16.30;40.90;;;;;;10431937;28;20682;-71
2023/04/06 15:31:57;;;;;;;10.60;5.00;;;16.30;40.90;;;;;;10426554;28;20322;-71
2023/04/06 15:37:01;;;;;;;8.30;4.90;;;16.30;40.30;;;;;;10431080;28;20539;-71
2023/04/06 15:42:02;;;;;;;6.77;5.00;;;16.30;40.50;;;;;;10426427;28;20219;-72
2023/04/06 15:47:02;;;;;;;7.20;5.37;;;16.30;41.20;;;;;;10423976;28;20261;-71
2023/04/06 15:52:03;;;;;;;7.30;4.30;;;16.10;41.30;;;;;;10427874;28;20221;-71
2023/04/06 15:57:03;;;;;;;5.50;3.70;;;15.90;40.80;;;;;;10425886;28;20212;-70
2023/04/06 16:02:04;;;;;;;6.03;4.37;;;15.60;41.90;;;;;;10422212;28;20697;-71
2023/04/06 16:07:05;;;;;;;8.07;4.77;;;15.50;42.90;;;;;;10427858;28;20223;-70
2023/04/06 16:12:06;;;;;;;6.27;4.23;;;15.30;43.20;;;;;;10420875;28;20293;-72
2023/04/06 16:17:06;;;;;;;7.20;4.83;;;15.00;44.40;;;;;;10428417;28;20216;-71
2023/04/06 16:22:07;;;;;;;8.60;4.40;;;14.80;45.00;;;;;;10428798;28;20323;-72
2023/04/06 16:27:08;;;;;;;6.03;3.80;;;14.60;45.30;;;;;;10427947;28;20276;-71
2023/04/06 16:32:10;;;;;;;5.53;4.00;;;14.50;46.10;;;;;;10420918;28;20635;-71
2023/04/06 16:37:11;;;;;;;9.47;3.70;;;14.50;46.30;;;;;;10418577;28;20718;-72
2023/04/06 16:42:12;;;;;;;6.47;4.00;;;14.60;46.30;;;;;;10426567;28;20259;-71
2023/04/06 16:47:12;;;;;;;5.97;3.90;;;14.50;46.80;;;;;;10426057;28;20230;-72
2023/04/06 16:52:13;;;;;;;5.27;3.47;;;14.30;46.90;;;;;;10427678;28;20638;-71
2023/04/06 16:57:14;;;;;;;8.27;3.70;;;14.20;48.30;;;;;;10416868;28;20737;-71
2023/04/06 17:02:15;;;;;;;6.13;3.40;;;14.10;48.50;;;;;;10423822;28;20231;-70
2023/04/06 17:07:15;;;;;;;4.27;3.37;;;13.80;48.90;;;;;;10426669;28;20216;-71
2023/04/06 17:12:16;;;;;;;6.33;3.10;;;13.70;49.50;;;;;;10430403;28;20737;-72
2023/04/06 17:17:16;;;;;;;5.30;2.90;;;13.50;50.40;;;;;;10434146;28;20605;-71
2023/04/06 17:22:19;;;;;;;3.47;2.93;;;13.40;51.90;;;;;;10433968;28;20235;-72
2023/04/06 17:27:22;;;;;;;3.60;2.93;;;13.20;53.10;;;;;;10437616;28;20373;-70
2023/04/06 17:32:22;;;;;;;3.73;2.67;;;13.20;54.40;;;;;;10432789;28;20767;-71
2023/04/06 17:37:23;;;;;;;4.20;2.97;;;13.00;55.00;;;;;;10433983;28;20321;-72
2023/04/06 17:42:24;;;;;;;5.37;3.10;;;12.90;55.80;;;;;;10428793;28;20740;-72
2023/04/06 17:47:30;;;;;;;3.40;2.80;;;12.90;56.40;;;;;;10431978;28;20247;-71
2023/04/06 17:52:31;;;;;;;6.27;3.53;;;12.80;56.80;;;;;;10434748;28;20754;-70
2023/04/06 17:57:32;;;;;;;4.17;2.90;;;12.70;57.20;;;;;;10427350;28;20228;-71
2023/04/06 18:02:32;;;;;;;4.30;3.13;;;12.60;57.90;;;;;;10434396;28;20266;-72
2023/04/06 18:07:36;;;;;;;4.57;3.67;;;12.50;58.00;;;;;;10427832;28;20259;-72
2023/04/06 18:12:36;;;;;;;6.00;3.00;;;12.40;58.40;;;;;;10428414;28;20220;-71
2023/04/06 18:17:37;;;;;;;3.80;2.90;;;12.30;58.60;;;;;;10426872;28;20216;-72
2023/04/06 18:22:38;;;;;;;3.90;3.10;;;12.30;58.80;;;;;;10429303;28;20239;-70
2023/04/06 18:27:39;;;;;;;4.17;3.67;;;12.20;59.90;;;;;;10441995;28;20226;-71
2023/04/06 18:32:39;;;;;;;5.40;3.40;;;12.10;62.40;;;;;;10427837;28;20224;-71
2023/04/06 18:37:40;;;;;;;6.03;3.30;;;12.00;63.90;;;;;;10427665;28;20254;-72
2023/04/06 18:42:41;;;;;;;4.20;3.10;;;11.90;67.00;;;;;;10423685;28;20231;-70
2023/04/06 18:47:41;;;;;;;4.40;3.30;;;11.80;68.40;;;;;;10433801;28;20315;-70
2023/04/06 18:52:42;;;;;;;5.90;3.70;;;11.80;72.00;;;;;;10427771;28;20220;-72
2023/04/06 18:57:43;;;;;;;5.27;4.00;;;11.70;74.40;;;;;;10423149;28;20212;-71
2023/04/06 19:02:44;;;;;;;4.47;4.07;;;11.50;77.90;;;;;;10421645;28;20221;-70
2023/04/06 19:07:50;;;;;;;4.50;4.10;;;11.50;81.10;;;;;;10423433;28;20284;-71
2023/04/06 19:12:56;;;;;;;5.73;3.73;;;11.40;84.90;;;;;;10416126;28;20224;-71
2023/04/06 19:17:57;;;;;;;5.23;4.30;;;11.30;90.40;;;;;;10430950;28;20220;-70
2023/04/06 19:22:58;;;;;;;5.07;4.20;;;11.20;93.80;;;;;;10426708;28;20216;-70
2023/04/06 19:27:59;;;;;;;5.47;4.07;;;11.00;98.50;;;;;;10430806;28;20219;-70
2023/04/06 19:33:03;;;;;;;5.20;4.10;;;10.90;99.90;;;;;;10426837;28;20303;-73
2023/04/06 19:38:03;;;;;;;8.13;4.50;;;10.80;99.90;;;;;;10430863;28;20223;-71
2023/04/06 19:43:07;;;;;;;5.40;4.67;;;10.70;99.90;;;;;;10426546;28;20220;-70
2023/04/06 19:48:07;;;;;;;6.07;4.83;;;10.70;99.90;;;;;;10429756;28;20228;-70
2023/04/06 19:53:08;;;;;;;5.43;4.33;;;10.50;99.90;;;;;;10425606;28;20705;-70
2023/04/06 19:58:08;;;;;;;5.87;5.10;;;10.50;99.90;;;;;;10422044;28;20243;-70
2023/04/06 20:03:09;;;;;;;6.30;5.50;;;10.40;99.90;;;;;;10427401;28;20224;-70
2023/04/06 20:08:10;;;;;;;8.67;5.60;;;10.30;99.90;;;;;;10427986;28;20217;-72
2023/04/06 20:13:10;;;;;;;7.97;5.83;;;10.20;99.90;;;;;;10421610;28;20219;-71
2023/04/06 20:18:11;;;;;;;6.97;6.27;;;10.10;99.90;;;;;;10418586;28;20255;-70
2023/04/06 20:23:12;;;;;;;8.13;6.73;;;10.00;99.90;;;;;;10427343;28;20730;-70
2023/04/06 20:28:12;;;;;;;7.57;6.77;;;10.00;99.90;;;;;;10428555;28;20239;-71
2023/04/06 20:33:13;;;;;;;8.60;7.13;;;9.90;99.90;;;;;;10423664;28;20274;-72
2023/04/06 20:38:13;;;;;;;8.03;7.23;;;9.80;99.90;;;;;;10426420;28;20216;-70
2023/04/06 20:43:14;;;;;;;12.33;8.80;;;9.70;99.90;;;;;;10420035;28;20211;-72
2023/04/06 20:48:15;;;;;;;10.33;8.77;;;9.70;99.90;;;;;;10427377;28;20212;-71
2023/04/06 20:53:19;;;;;;;11.27;9.53;;;9.60;99.90;;;;;;10417396;28;20213;-70
2023/04/06 20:58:20;;;;;;;10.57;9.47;;;9.50;99.90;;;;;;10423374;28;20217;-71
2023/04/06 21:03:20;;;;;;;12.07;9.90;;;9.50;99.90;;;;;;10419473;28;20584;-71
2023/04/06 21:08:21;;;;;;;13.70;10.97;;;9.50;99.90;;;;;;10425888;28;20216;-71
2023/04/06 21:13:21;;;;;;;12.40;11.10;;;9.40;99.90;;;;;;10423851;28;20211;-70
2023/04/06 21:18:22;;;;;;;12.17;10.73;;;9.40;99.90;;;;;;10414888;28;20224;-71
2023/04/06 21:23:23;;;;;;;13.87;11.33;;;9.30;99.90;;;;;;10425559;28;20291;-71
2023/04/06 21:28:25;;;;;;;14.03;12.53;;;9.30;99.90;;;;;;10430330;28;20298;-70
2023/04/06 21:33:25;;;;;;;14.70;13.03;;;9.10;99.90;;;;;;10423835;28;20283;-70
2023/04/06 21:38:38;;;;;;;15.93;13.97;;;9.10;99.90;;;;;;10427281;28;20223;-71
2023/04/06 21:43:41;;;;;;;15.63;13.93;;;8.90;99.90;;;;;;10419249;28;20232;-71
2023/04/06 21:48:41;;;;;;;16.43;13.00;;;8.80;99.90;;;;;;10430491;28;20624;-70
2023/04/06 21:53:42;;;;;;;15.23;13.57;;;8.70;99.90;;;;;;10430791;28;20772;-70
2023/04/06 21:58:42;;;;;;;16.23;14.10;;;8.70;99.90;;;;;;10436523;28;20709;-70
2023/04/06 22:03:44;;;;;;;14.87;12.33;;;8.80;99.90;;;;;;10437129;28;20227;-71
2023/04/06 22:08:48;;;;;;;15.73;12.43;;;8.80;99.90;;;;;;10425796;28;20220;-70
2023/04/06 22:13:51;;;;;;;17.80;13.03;;;8.80;99.90;;;;;;10414023;28;20228;-70
2023/04/06 22:18:52;;;;;;;15.20;11.93;;;8.80;99.90;;;;;;10428034;28;20225;-70
2023/04/06 22:23:53;;;;;;;14.17;11.70;;;8.90;99.90;;;;;;10414331;28;20224;-71
2023/04/06 22:28:53;;;;;;;12.93;11.60;;;8.80;99.90;;;;;;10433595;28;20224;-70
2023/04/06 22:33:54;;;;;;;14.57;11.47;;;8.90;99.90;;;;;;10428112;28;20228;-71
2023/04/06 22:38:57;;;;;;;12.73;11.17;;;8.90;99.90;;;;;;10432143;28;20220;-71
2023/04/06 22:43:58;;;;;;;13.07;11.27;;;8.90;99.90;;;;;;10415628;28;20226;-71
2023/04/06 22:48:58;;;;;;;13.33;11.17;;;8.90;99.90;;;;;;10428045;28;20224;-70
2023/04/06 22:53:59;;;;;;;13.37;11.33;;;8.90;99.90;;;;;;10427384;28;20242;-70
2023/04/06 22:59:00;;;;;;;13.80;11.10;;;8.80;99.90;;;;;;10424453;28;20679;-71
2023/04/06 23:04:00;;;;;;;13.03;11.47;;;8.70;99.90;;;;;;10424513;28;20223;-70
2023/04/06 23:09:01;;;;;;;14.40;11.03;;;8.70;99.90;;;;;;10425812;28;20223;-70
2023/04/06 23:14:01;;;;;;;15.13;10.83;;;8.80;99.90;;;;;;10428557;28;20219;-70
2023/04/06 23:19:02;;;;;;;12.27;10.93;;;8.70;99.90;;;;;;10426215;28;20251;-70
2023/04/06 23:24:02;;;;;;;13.30;11.37;;;8.70;99.90;;;;;;10424185;28;20217;-71
2023/04/06 23:29:03;;;;;;;12.43;11.00;;;8.60;99.90;;;;;;10431820;28;20277;-71
2023/04/06 23:34:03;;;;;;;11.90;10.60;;;8.70;99.90;;;;;;10434144;28;20220;-71
2023/04/06 23:39:04;;;;;;;13.60;10.33;;;8.80;99.90;;;;;;10428622;28;20336;-71
2023/04/06 23:44:05;;;;;;;12.97;10.20;;;8.80;99.90;;;;;;10430309;28;20277;-70
2023/04/06 23:49:06;;;;;;;11.37;9.80;;;8.80;99.90;;;;;;10427362;28;20252;-69
2023/04/06 23:54:08;;;;;;;12.50;9.67;;;8.80;99.90;;;;;;10430646;28;20216;-70
2023/04/06 23:59:08;;;;;;;12.13;9.67;;;8.80;99.90;;;;;;10427247;28;20224;-70
